Terminal Aerodrome Forecast
Issued by NWS Greer, SC

Home | Current Version | Previous Version | Text Only | Print | Product List | Glossary On
Versions: 1 2 3 4 5 6 7 8 9 10 11 12 13 14 15 16 17 18 19 20 21 22 23 24 25 26 27 28
000
FTUS42 KGSP 300539
TAFCLT
TAF
KCLT 300539Z 3006/3106 VRB02KT P6SM SCT020 OVC140
     FM300700 VRB02KT P6SM OVC015
     FM300800 VRB02KT P6SM OVC006
      TEMPO 3010/3012 OVC003
     FM301300 24005KT P6SM OVC100 PROB30 3019/3023 4SM -TSRA
      OVC040CB
     FM310500 24003KT P6SM SCT250=

USA.gov is the U.S. government's official web portal to all federal, state and local government web resources and services.